createdAt,value
2023-02-17T00:00:01.645Z,13.83
2023-02-17T00:15:02.418Z,13.88
2023-02-17T00:30:02.189Z,14.09
2023-02-17T00:45:01.901Z,14.19
2023-02-17T01:00:01.569Z,14.4
2023-02-17T01:15:02.250Z,14.67
2023-02-17T01:30:02.107Z,14.57
2023-02-17T01:45:01.886Z,14.42
2023-02-17T02:00:01.563Z,14.23
2023-02-17T02:15:02.208Z,14.41
2023-02-17T02:30:01.933Z,14.57
2023-02-17T02:45:01.657Z,14.59
2023-02-17T03:00:01.360Z,14.51
2023-02-17T03:15:02.056Z,14.53
2023-02-17T03:30:01.795Z,14.59
2023-02-17T03:45:01.490Z,14.93
2023-02-17T04:00:02.201Z,14.88
2023-02-17T04:15:02.250Z,15.03
2023-02-17T04:30:02.006Z,14.92
2023-02-17T04:45:01.736Z,14.93
2023-02-17T05:00:02.337Z,14.92
2023-02-17T05:15:01.921Z,14.57
2023-02-17T05:30:01.551Z,14.2
2023-02-17T05:45:02.192Z,14.06
2023-02-17T06:00:01.768Z,13.99
2023-02-17T06:15:02.543Z,14.39
2023-02-17T06:30:02.265Z,14.35
2023-02-17T06:45:01.953Z,14.24
2023-02-17T07:00:01.582Z,14.23
2023-02-17T07:15:02.258Z,14.06
2023-02-17T07:30:01.972Z,13.9
2023-02-17T07:45:01.599Z,13.93
2023-02-17T08:00:02.228Z,14.12
2023-02-17T08:15:02.025Z,14.13
2023-02-17T08:30:01.715Z,14.47
2023-02-17T08:45:01.404Z,14.85
2023-02-17T09:00:02.053Z,15.19
2023-02-17T09:15:01.784Z,15.36
2023-02-17T09:30:01.524Z,15.43
2023-02-17T09:45:02.190Z,15.75
2023-02-17T10:00:01.860Z,15.96
2023-02-17T10:15:01.601Z,16.33
2023-02-17T10:30:01.322Z,16.86
2023-02-17T10:45:02.074Z,17.81
2023-02-17T11:00:01.712Z,17.71
2023-02-17T11:15:01.344Z,17.72
2023-02-17T11:30:02.101Z,17.96
2023-02-17T11:45:01.794Z,17.71
2023-02-17T12:00:01.492Z,17.39
2023-02-17T12:15:02.399Z,17.44
2023-02-17T12:30:02.172Z,17.28
2023-02-17T12:45:01.839Z,17.19
2023-02-17T13:00:01.470Z,17.03
2023-02-17T13:15:02.130Z,15.95
2023-02-17T13:30:01.885Z,15.39
2023-02-17T13:45:01.601Z,15.1
2023-02-17T14:00:02.247Z,15.14
2023-02-17T14:15:01.889Z,15.18
2023-02-17T14:30:03.760Z,15.35
2023-02-17T14:45:01.878Z,15.19
2023-02-17T15:00:01.512Z,15.25
2023-02-17T15:15:02.145Z,15.37
2023-02-17T15:30:01.871Z,15.35
2023-02-17T15:45:01.536Z,15.22
2023-02-17T16:00:02.161Z,15.1
2023-02-17T16:15:01.824Z,15.28
2023-02-17T16:30:01.582Z,15.44
2023-02-17T16:45:02.286Z,15.57
2023-02-17T17:00:01.964Z,15.58
2023-02-17T17:15:01.613Z,15.39
2023-02-17T17:30:01.558Z,14.7
2023-02-17T17:45:01.292Z,14.06
2023-02-17T18:00:01.926Z,14.15
2023-02-17T18:15:01.593Z,13.98
2023-02-17T18:30:01.399Z,13.57
2023-02-17T18:45:02.120Z,13.31
2023-02-17T19:00:01.773Z,13.39
2023-02-17T19:15:01.508Z,13.42
2023-02-17T19:30:01.253Z,13.38
2023-02-17T19:45:01.931Z,13.13
2023-02-17T20:00:01.616Z,12.99
2023-02-17T20:15:01.566Z,13.08
2023-02-17T20:30:02.498Z,13.31
2023-02-17T20:45:02.845Z,13.36
2023-02-17T21:00:01.507Z,13.37
2023-02-17T21:15:02.149Z,13.39
2023-02-17T21:30:01.920Z,13.4
2023-02-17T21:45:01.603Z,13.53
2023-02-17T22:00:02.232Z,13.61
2023-02-17T22:15:01.886Z,13.66
2023-02-17T22:30:01.586Z,13.7
2023-02-17T22:45:02.233Z,13.85
2023-02-17T23:00:01.926Z,13.6
2023-02-17T23:15:01.615Z,13.6
2023-02-17T23:30:02.305Z,13.39
2023-02-17T23:45:01.992Z,13.08
